createdAt,value
2022-07-29T00:00:00.635Z,67.53
2022-07-29T00:02:28.360Z,67.93
2022-07-29T00:04:55.205Z,68.08
2022-07-29T00:07:21.844Z,68.15
2022-07-29T00:09:50.914Z,67.75
2022-07-29T00:12:26.528Z,67.82
2022-07-29T00:14:57.534Z,68.02
2022-07-29T00:17:25.257Z,67.87
2022-07-29T00:19:52.725Z,68.02
2022-07-29T00:22:20.205Z,68.41
2022-07-29T00:24:49.682Z,68.47
2022-07-29T00:27:16.767Z,67.95
2022-07-29T00:29:43.469Z,67.73
2022-07-29T00:32:10.098Z,67.38
2022-07-29T00:34:55.653Z,67.03
2022-07-29T00:37:22.458Z,67.00
2022-07-29T00:39:49.167Z,67.11
2022-07-29T00:42:15.965Z,66.95
2022-07-29T00:44:42.813Z,67.31
2022-07-29T00:47:11.613Z,67.09
2022-07-29T00:49:40.852Z,67.10
2022-07-29T00:52:09.468Z,67.09
2022-07-29T00:54:39.180Z,67.25
2022-07-29T00:57:11.049Z,66.91
2022-07-29T00:59:37.866Z,66.99
2022-07-29T01:02:04.666Z,67.03
2022-07-29T01:04:32.794Z,67.44
2022-07-29T01:07:01.493Z,67.54
2022-07-29T01:09:40.796Z,68.02
2022-07-29T01:12:20.730Z,67.66
2022-07-29T01:14:49.946Z,67.83
2022-07-29T01:17:28.529Z,67.94
2022-07-29T01:20:00.950Z,68.18
2022-07-29T01:22:37.101Z,68.17
2022-07-29T01:25:11.138Z,68.46
2022-07-29T01:27:53.482Z,68.57
2022-07-29T01:30:23.658Z,68.78
2022-07-29T01:32:55.455Z,69.05
2022-07-29T01:35:29.700Z,68.82
2022-07-29T01:38:09.425Z,68.62
2022-07-29T01:40:48.848Z,68.57
2022-07-29T01:43:22.022Z,68.38
2022-07-29T01:46:02.147Z,68.31
2022-07-29T01:48:38.032Z,69.10
2022-07-29T01:51:30.230Z,69.18
2022-07-29T01:54:08.178Z,68.89
2022-07-29T01:56:37.344Z,69.25
2022-07-29T01:59:07.518Z,69.32
2022-07-29T02:01:35.886Z,69.23
2022-07-29T02:04:08.585Z,69.17
2022-07-29T02:06:38.275Z,69.38
2022-07-29T02:09:06.102Z,69.23
2022-07-29T02:11:36.960Z,69.12
2022-07-29T02:14:06.038Z,69.24
2022-07-29T02:16:34.345Z,69.04
2022-07-29T02:19:03.760Z,69.24
2022-07-29T02:21:33.061Z,69.11
2022-07-29T02:24:02.385Z,69.03
2022-07-29T02:26:31.377Z,69.37
2022-07-29T02:29:00.106Z,69.15
2022-07-29T02:31:33.524Z,69.36
2022-07-29T02:34:02.770Z,69.12
2022-07-29T02:36:30.806Z,68.62
2022-07-29T02:39:01.505Z,68.39
2022-07-29T02:41:45.930Z,68.48
2022-07-29T02:44:17.849Z,68.60
2022-07-29T02:46:52.046Z,68.73
2022-07-29T02:49:43.794Z,68.71
2022-07-29T02:52:13.364Z,68.48
2022-07-29T02:54:43.251Z,68.28
2022-07-29T02:57:22.741Z,68.35
2022-07-29T02:59:52.581Z,68.01
2022-07-29T03:02:20.546Z,68.17
2022-07-29T03:04:50.180Z,67.99
2022-07-29T03:07:19.738Z,67.87
2022-07-29T03:09:46.916Z,67.79
2022-07-29T03:12:14.858Z,67.59
2022-07-29T03:14:42.189Z,67.38
2022-07-29T03:17:10.724Z,67.79
2022-07-29T03:19:37.531Z,67.59
2022-07-29T03:22:04.934Z,67.82
2022-07-29T03:24:36.663Z,67.71
2022-07-29T03:27:04.194Z,67.18
2022-07-29T03:29:33.981Z,67.29
2022-07-29T03:32:03.360Z,67.12
2022-07-29T03:34:31.014Z,67.30
2022-07-29T03:36:57.677Z,67.16
2022-07-29T03:39:30.505Z,67.17
2022-07-29T03:41:59.912Z,66.93
2022-07-29T03:44:28.640Z,67.10
2022-07-29T03:46:58.954Z,66.93
2022-07-29T03:49:27.410Z,66.95
2022-07-29T03:51:54.395Z,66.65
2022-07-29T03:54:21.683Z,66.74
2022-07-29T03:56:51.198Z,66.29
2022-07-29T03:59:20.482Z,66.43
2022-07-29T04:01:47.983Z,66.17
2022-07-29T04:04:15.104Z,66.11
2022-07-29T04:06:43.853Z,66.25
2022-07-29T04:09:11.624Z,66.40
2022-07-29T04:11:59.628Z,66.29
2022-07-29T04:14:27.923Z,66.81
2022-07-29T04:16:54.589Z,67.00
2022-07-29T04:19:21.183Z,67.11
2022-07-29T04:21:47.887Z,67.40
2022-07-29T04:24:15.069Z,67.78
2022-07-29T04:26:41.928Z,67.80
2022-07-29T04:29:08.670Z,68.14
2022-07-29T04:31:35.430Z,68.16
2022-07-29T04:34:02.104Z,68.35
2022-07-29T04:36:29.919Z,68.16
2022-07-29T04:38:57.265Z,68.36
2022-07-29T04:41:23.886Z,68.45
2022-07-29T04:44:01.977Z,68.77
2022-07-29T04:46:28.955Z,68.82
2022-07-29T04:48:55.712Z,69.01
2022-07-29T04:51:22.359Z,69.25
2022-07-29T04:53:48.993Z,69.29
2022-07-29T04:56:15.798Z,69.10
2022-07-29T04:58:42.478Z,69.28
2022-07-29T05:01:09.218Z,69.16
2022-07-29T05:03:35.861Z,69.61
2022-07-29T05:06:02.546Z,69.92
2022-07-29T05:08:29.222Z,69.96
2022-07-29T05:10:55.957Z,69.88
2022-07-29T05:13:22.564Z,70.22
2022-07-29T05:15:49.335Z,70.21
2022-07-29T05:18:16.564Z,70.10
2022-07-29T05:20:43.226Z,70.44
2022-07-29T05:23:10.018Z,70.58
2022-07-29T05:25:44.340Z,70.41
2022-07-29T05:28:12.411Z,70.04
2022-07-29T05:30:39.586Z,69.22
2022-07-29T05:33:06.328Z,68.92
2022-07-29T05:35:33.375Z,68.66
2022-07-29T05:37:59.957Z,68.16
2022-07-29T05:40:26.616Z,67.66
2022-07-29T05:42:53.308Z,67.35
2022-07-29T05:45:19.967Z,67.45
2022-07-29T05:47:46.683Z,66.98
2022-07-29T05:50:13.690Z,67.17
2022-07-29T05:52:40.323Z,67.10
2022-07-29T05:55:07.450Z,67.21
2022-07-29T05:57:34.293Z,67.01
2022-07-29T06:00:01.100Z,66.88
2022-07-29T06:02:27.917Z,67.13
2022-07-29T06:04:54.792Z,67.29
2022-07-29T06:07:24.500Z,67.18
2022-07-29T06:09:51.224Z,67.23
2022-07-29T06:12:17.812Z,66.88
2022-07-29T06:14:44.454Z,66.37
2022-07-29T06:17:12.578Z,66.66
2022-07-29T06:19:41.857Z,66.36
2022-07-29T06:22:08.474Z,66.04
2022-07-29T06:24:38.162Z,66.06
2022-07-29T06:27:04.721Z,65.94
2022-07-29T06:29:31.830Z,65.87
2022-07-29T06:31:58.628Z,65.61
2022-07-29T06:34:25.282Z,65.43
2022-07-29T06:36:53.730Z,65.23
2022-07-29T06:39:21.405Z,65.50
2022-07-29T06:41:50.162Z,65.31
2022-07-29T06:44:18.434Z,64.86
2022-07-29T06:46:45.407Z,64.84
2022-07-29T06:49:13.352Z,65.27
2022-07-29T06:51:40.016Z,65.29
2022-07-29T06:54:06.780Z,64.97
2022-07-29T06:56:38.453Z,64.88
2022-07-29T06:59:07.939Z,64.26
2022-07-29T07:01:34.805Z,63.79
2022-07-29T07:04:01.583Z,63.18
2022-07-29T07:06:30.536Z,62.25
2022-07-29T07:08:57.153Z,61.87
2022-07-29T07:11:23.876Z,62.33
2022-07-29T07:13:50.478Z,62.64
2022-07-29T07:16:17.329Z,62.46
2022-07-29T07:18:46.062Z,62.75
2022-07-29T07:21:18.986Z,62.06
2022-07-29T07:23:46.676Z,59.88
2022-07-29T07:26:13.448Z,60.03
2022-07-29T07:28:40.248Z,59.55
2022-07-29T07:31:07.087Z,58.64
2022-07-29T07:33:33.786Z,58.06
2022-07-29T07:36:02.594Z,56.92
2022-07-29T07:38:29.226Z,56.18
2022-07-29T07:40:56.055Z,56.70
2022-07-29T07:43:23.701Z,57.41
2022-07-29T07:45:55.826Z,55.87
2022-07-29T07:48:26.211Z,55.17
2022-07-29T07:50:52.872Z,55.58
2022-07-29T07:53:19.674Z,54.56
2022-07-29T07:56:09.318Z,53.16
2022-07-29T07:58:33.693Z,51.95
2022-07-29T08:01:00.443Z,52.60
2022-07-29T08:03:27.137Z,53.05
2022-07-29T08:05:55.167Z,52.38
2022-07-29T08:08:22.014Z,53.59
2022-07-29T08:10:54.788Z,54.25
2022-07-29T08:13:23.032Z,55.61
2022-07-29T08:15:58.504Z,55.21
2022-07-29T08:18:26.313Z,54.80
2022-07-29T08:20:53.146Z,54.47
2022-07-29T08:23:20.166Z,54.05
2022-07-29T08:25:46.965Z,52.71
2022-07-29T08:28:17.826Z,52.26
2022-07-29T08:30:44.485Z,51.64
2022-07-29T08:33:11.152Z,52.19
2022-07-29T08:35:39.498Z,52.01
2022-07-29T08:38:06.145Z,52.03
2022-07-29T08:40:32.948Z,51.92
2022-07-29T08:43:06.539Z,52.08
2022-07-29T08:45:48.191Z,51.44
2022-07-29T08:48:23.232Z,52.02
2022-07-29T08:50:57.013Z,50.15
2022-07-29T08:53:27.970Z,50.21
2022-07-29T08:55:55.625Z,51.17
2022-07-29T08:58:24.716Z,50.74
2022-07-29T09:00:56.768Z,50.69
2022-07-29T09:03:29.148Z,50.51
2022-07-29T09:05:56.047Z,50.61
2022-07-29T09:08:24.095Z,49.36
2022-07-29T09:10:51.501Z,49.84
2022-07-29T09:13:18.784Z,49.55
2022-07-29T09:15:45.883Z,50.05
2022-07-29T09:18:20.473Z,50.01
2022-07-29T09:21:16.566Z,50.21
2022-07-29T09:24:10.003Z,49.80
2022-07-29T09:26:39.988Z,49.76
2022-07-29T09:29:18.102Z,49.27
2022-07-29T09:31:47.306Z,48.96
2022-07-29T09:34:17.398Z,49.05
2022-07-29T09:36:46.383Z,48.37
2022-07-29T09:39:14.099Z,48.83
2022-07-29T09:41:55.552Z,48.39
2022-07-29T09:44:24.101Z,48.40
2022-07-29T09:47:09.274Z,47.17
2022-07-29T09:49:50.594Z,46.06
2022-07-29T09:52:17.212Z,45.99
2022-07-29T09:54:43.874Z,45.75
2022-07-29T09:57:30.875Z,45.64
2022-07-29T10:00:07.944Z,45.94
2022-07-29T10:02:44.438Z,45.32
2022-07-29T10:05:18.342Z,42.75
2022-07-29T10:07:54.282Z,41.77
2022-07-29T10:10:23.679Z,41.57
2022-07-29T10:13:01.758Z,41.86
2022-07-29T10:15:38.000Z,42.87
2022-07-29T10:18:05.123Z,43.05
2022-07-29T10:20:31.747Z,43.13
2022-07-29T10:22:58.680Z,43.58
2022-07-29T10:25:26.071Z,43.55
2022-07-29T10:27:54.227Z,43.91
2022-07-29T10:30:22.858Z,43.90
2022-07-29T10:33:18.351Z,43.92
2022-07-29T10:36:06.400Z,43.59
2022-07-29T10:38:36.003Z,43.61
2022-07-29T10:41:43.991Z,43.25
2022-07-29T10:44:22.835Z,42.73
2022-07-29T10:46:52.121Z,43.44
2022-07-29T10:49:31.121Z,44.66
2022-07-29T10:52:02.629Z,44.39
2022-07-29T10:54:47.152Z,43.92
2022-07-29T10:57:14.735Z,43.29
2022-07-29T10:59:43.192Z,42.65
2022-07-29T11:02:42.334Z,42.50
2022-07-29T11:05:19.872Z,42.62
2022-07-29T11:08:20.224Z,41.62
2022-07-29T11:10:49.230Z,41.09
2022-07-29T11:13:46.520Z,41.80
2022-07-29T11:16:16.196Z,41.78
2022-07-29T11:19:14.749Z,41.64
2022-07-29T11:21:53.448Z,42.98
2022-07-29T11:24:29.202Z,43.38
2022-07-29T11:27:23.348Z,43.29
2022-07-29T11:29:58.554Z,43.40
2022-07-29T11:32:36.829Z,41.01
2022-07-29T11:35:19.115Z,38.28
2022-07-29T11:38:23.777Z,37.32
2022-07-29T11:41:23.981Z,35.95
2022-07-29T11:44:01.570Z,35.38
2022-07-29T11:46:47.822Z,35.86
2022-07-29T11:49:19.507Z,36.01
2022-07-29T11:51:57.134Z,36.49
2022-07-29T11:54:33.023Z,35.23
2022-07-29T11:57:07.899Z,35.95
2022-07-29T11:59:45.673Z,36.67
2022-07-29T12:02:37.424Z,37.27
2022-07-29T12:05:00.515Z,37.07
2022-07-29T12:07:39.099Z,36.57
2022-07-29T12:10:11.306Z,36.46
2022-07-29T12:12:53.684Z,35.51
2022-07-29T12:15:24.973Z,34.90
2022-07-29T12:18:18.376Z,35.95
2022-07-29T12:20:45.892Z,36.70
2022-07-29T12:23:13.266Z,37.27
2022-07-29T12:25:42.428Z,37.54
2022-07-29T12:28:14.221Z,37.48
2022-07-29T12:30:52.274Z,38.72
2022-07-29T12:33:19.024Z,39.04
2022-07-29T12:36:03.540Z,38.83
2022-07-29T12:38:37.177Z,38.46
2022-07-29T12:41:04.941Z,39.03
2022-07-29T12:43:32.086Z,39.22
2022-07-29T12:45:58.916Z,39.28
2022-07-29T12:48:42.983Z,38.48
2022-07-29T12:51:12.622Z,38.04
2022-07-29T12:53:42.094Z,38.62
2022-07-29T12:56:41.321Z,39.24
2022-07-29T12:59:21.213Z,38.79
2022-07-29T13:01:51.279Z,38.64
2022-07-29T13:04:37.681Z,38.67
2022-07-29T13:07:09.166Z,38.11
2022-07-29T13:09:39.843Z,38.20
2022-07-29T13:12:11.498Z,38.50
2022-07-29T13:14:41.415Z,39.24
2022-07-29T13:17:24.326Z,39.37
2022-07-29T13:19:54.077Z,39.20
2022-07-29T13:22:22.981Z,38.76
2022-07-29T13:25:04.749Z,38.37
2022-07-29T13:27:35.834Z,38.45
2022-07-29T13:30:04.830Z,39.35
2022-07-29T13:32:32.394Z,39.08
2022-07-29T13:35:05.132Z,38.64
2022-07-29T13:37:35.050Z,38.50
2022-07-29T13:40:04.173Z,38.10
2022-07-29T13:42:31.697Z,37.81
2022-07-29T13:44:58.624Z,38.57
2022-07-29T13:47:32.284Z,37.58
2022-07-29T13:50:05.337Z,37.37
2022-07-29T13:52:33.302Z,37.12
2022-07-29T13:55:00.024Z,37.39
2022-07-29T13:57:26.742Z,37.53
2022-07-29T13:59:54.578Z,36.98
2022-07-29T14:02:25.259Z,37.22
2022-07-29T14:04:53.581Z,39.80
2022-07-29T14:07:20.545Z,39.99
2022-07-29T14:09:47.260Z,38.93
2022-07-29T14:12:14.030Z,37.88
2022-07-29T14:14:40.817Z,37.35
2022-07-29T14:17:07.925Z,37.27
2022-07-29T14:19:41.147Z,38.15
2022-07-29T14:22:09.654Z,38.67
2022-07-29T14:24:38.437Z,38.14
2022-07-29T14:27:06.565Z,37.85
2022-07-29T14:29:37.789Z,37.14
2022-07-29T14:32:10.078Z,37.18
2022-07-29T14:34:38.312Z,39.96
2022-07-29T14:37:06.720Z,38.72
2022-07-29T14:39:38.178Z,37.68
2022-07-29T14:42:09.621Z,37.07
2022-07-29T14:44:38.353Z,37.26
2022-07-29T14:47:07.852Z,36.98
2022-07-29T14:49:35.480Z,36.29
2022-07-29T14:52:02.174Z,36.31
2022-07-29T14:54:29.074Z,36.38
2022-07-29T14:56:58.135Z,36.80
2022-07-29T14:59:25.500Z,36.83
2022-07-29T15:01:52.330Z,36.34
2022-07-29T15:04:18.988Z,37.14
2022-07-29T15:06:45.702Z,37.01
2022-07-29T15:09:12.811Z,36.90
2022-07-29T15:11:39.680Z,36.74
2022-07-29T15:14:07.043Z,37.21
2022-07-29T15:16:36.474Z,37.79
2022-07-29T15:19:03.803Z,38.26
2022-07-29T15:21:30.537Z,38.19
2022-07-29T15:23:57.302Z,38.66
2022-07-29T15:26:23.989Z,39.00
2022-07-29T15:28:50.577Z,38.27
2022-07-29T15:31:17.330Z,39.28
2022-07-29T15:33:43.974Z,39.57
2022-07-29T15:36:25.495Z,39.29
2022-07-29T15:38:59.315Z,39.09
2022-07-29T15:41:26.057Z,39.26
2022-07-29T15:43:52.654Z,37.87
2022-07-29T15:46:38.608Z,37.89
2022-07-29T15:49:08.367Z,38.59
2022-07-29T15:51:35.414Z,38.59
2022-07-29T15:54:03.623Z,38.21
2022-07-29T15:56:30.676Z,38.27
2022-07-29T15:58:57.823Z,38.13
2022-07-29T16:01:25.119Z,38.83
2022-07-29T16:03:52.000Z,38.41
2022-07-29T16:06:19.267Z,38.06
2022-07-29T16:08:45.876Z,37.78
2022-07-29T16:11:12.511Z,36.97
2022-07-29T16:13:39.142Z,36.60
2022-07-29T16:16:08.766Z,36.70
2022-07-29T16:18:47.204Z,35.95
2022-07-29T16:21:14.437Z,35.48
2022-07-29T16:23:41.434Z,34.59
2022-07-29T16:26:08.221Z,34.24
2022-07-29T16:28:35.000Z,33.88
2022-07-29T16:31:03.071Z,33.25
2022-07-29T16:33:54.379Z,32.81
2022-07-29T16:36:18.505Z,32.68
2022-07-29T16:38:47.372Z,32.63
2022-07-29T16:41:14.484Z,32.80
2022-07-29T16:43:42.330Z,33.02
2022-07-29T16:46:13.145Z,32.71
2022-07-29T16:48:45.508Z,32.50
2022-07-29T16:51:14.435Z,32.22
2022-07-29T16:53:44.522Z,32.35
2022-07-29T16:56:12.689Z,32.67
2022-07-29T16:58:43.545Z,32.90
2022-07-29T17:01:11.093Z,32.79
2022-07-29T17:04:00.198Z,33.04
2022-07-29T17:06:29.921Z,32.67
2022-07-29T17:08:56.983Z,33.16
2022-07-29T17:11:53.020Z,32.33
2022-07-29T17:14:10.635Z,32.52
2022-07-29T17:16:37.422Z,32.18
2022-07-29T17:19:04.451Z,32.41
2022-07-29T17:21:31.221Z,32.54
2022-07-29T17:23:59.265Z,32.80
2022-07-29T17:26:27.475Z,32.51
2022-07-29T17:28:55.603Z,32.74
2022-07-29T17:31:23.537Z,33.11
2022-07-29T17:33:50.725Z,33.25
2022-07-29T17:36:29.612Z,32.81
2022-07-29T17:38:59.040Z,32.96
2022-07-29T17:41:25.957Z,32.20
2022-07-29T17:43:53.412Z,31.77
2022-07-29T17:46:22.199Z,31.73
2022-07-29T17:48:49.382Z,32.44
2022-07-29T17:51:16.324Z,32.26
2022-07-29T17:53:43.008Z,31.75
2022-07-29T17:56:09.777Z,31.86
2022-07-29T17:58:36.554Z,31.66
2022-07-29T18:01:04.028Z,31.86
2022-07-29T18:03:30.928Z,32.29
2022-07-29T18:06:00.724Z,32.04
2022-07-29T18:08:28.108Z,32.86
2022-07-29T18:10:55.868Z,33.06
2022-07-29T18:13:22.504Z,33.89
2022-07-29T18:15:49.634Z,35.16
2022-07-29T18:18:18.244Z,35.84
2022-07-29T18:20:45.671Z,35.37
2022-07-29T18:23:12.948Z,35.94
2022-07-29T18:25:40.127Z,36.57
2022-07-29T18:28:07.253Z,37.35
2022-07-29T18:30:34.517Z,37.90
2022-07-29T18:35:49.493Z,39.52
2022-07-29T18:38:16.263Z,39.55
2022-07-29T18:40:44.492Z,39.88
2022-07-29T18:43:11.839Z,40.21
2022-07-29T18:45:39.572Z,40.75
2022-07-29T18:48:12.949Z,40.92
2022-07-29T18:50:41.201Z,41.58
2022-07-29T18:53:08.257Z,41.82
2022-07-29T18:55:34.857Z,42.16
2022-07-29T18:58:01.505Z,43.17
2022-07-29T19:00:28.584Z,43.74
2022-07-29T19:02:56.786Z,44.43
2022-07-29T19:05:24.017Z,45.02
2022-07-29T19:07:50.938Z,45.24
2022-07-29T19:10:17.748Z,45.38
2022-07-29T19:12:44.416Z,45.92
2022-07-29T19:15:11.385Z,46.06
2022-07-29T19:17:38.780Z,46.46
2022-07-29T19:20:07.295Z,46.49
2022-07-29T19:22:34.394Z,46.86
2022-07-29T19:25:01.088Z,47.16
2022-07-29T19:27:27.723Z,47.41
2022-07-29T19:29:58.995Z,48.09
2022-07-29T19:32:26.393Z,48.56
2022-07-29T19:35:11.848Z,48.73
2022-07-29T19:37:38.509Z,48.99
2022-07-29T19:40:06.889Z,49.40
2022-07-29T19:42:34.039Z,50.19
2022-07-29T19:45:00.947Z,50.55
2022-07-29T19:47:27.525Z,51.12
2022-07-29T19:49:54.183Z,51.40
2022-07-29T19:52:20.802Z,51.30
2022-07-29T19:54:47.555Z,52.32
2022-07-29T19:57:14.351Z,52.44
2022-07-29T19:59:41.342Z,53.30
2022-07-29T20:02:10.782Z,53.44
2022-07-29T20:04:38.472Z,54.46
2022-07-29T20:07:05.481Z,54.87
2022-07-29T20:09:32.386Z,55.53
2022-07-29T20:11:59.358Z,56.20
2022-07-29T20:14:25.993Z,56.67
2022-07-29T20:16:54.301Z,56.71
2022-07-29T20:19:20.983Z,57.35
2022-07-29T20:21:47.796Z,58.06
2022-07-29T20:24:14.485Z,58.82
2022-07-29T20:26:41.182Z,59.13
2022-07-29T20:29:07.851Z,59.63
2022-07-29T20:31:35.597Z,60.30
2022-07-29T20:34:02.260Z,61.21
2022-07-29T20:36:28.955Z,61.53
2022-07-29T20:38:55.937Z,61.44
2022-07-29T20:41:23.409Z,61.58
2022-07-29T20:43:50.292Z,61.88
2022-07-29T20:46:17.896Z,61.63
2022-07-29T20:48:47.220Z,61.54
2022-07-29T20:51:14.464Z,62.33
2022-07-29T20:53:41.666Z,62.75
2022-07-29T20:56:08.513Z,63.44
2022-07-29T20:58:36.293Z,64.17
2022-07-29T21:01:03.220Z,64.50
2022-07-29T21:03:30.088Z,65.19
2022-07-29T21:05:56.684Z,66.47
2022-07-29T21:08:23.374Z,66.95
2022-07-29T21:10:50.238Z,67.91
2022-07-29T21:13:17.070Z,67.39
2022-07-29T21:15:46.337Z,67.54
2022-07-29T21:18:31.915Z,67.83
2022-07-29T21:21:01.051Z,67.97
2022-07-29T21:23:28.174Z,68.49
2022-07-29T21:25:55.060Z,68.86
2022-07-29T21:28:29.327Z,69.51
2022-07-29T21:31:00.882Z,70.04
2022-07-29T21:33:29.570Z,70.41
2022-07-29T21:36:16.006Z,70.96
2022-07-29T21:38:43.482Z,70.88
2022-07-29T21:41:12.531Z,71.48
2022-07-29T21:43:41.771Z,71.52
2022-07-29T21:46:09.244Z,71.93
2022-07-29T21:48:36.158Z,71.93
2022-07-29T21:51:02.855Z,71.89
2022-07-29T21:53:30.682Z,71.95
2022-07-29T21:55:58.238Z,72.34
2022-07-29T21:58:26.008Z,72.24
2022-07-29T22:00:52.757Z,72.25
2022-07-29T22:03:19.409Z,72.78
2022-07-29T22:05:46.073Z,72.64
2022-07-29T22:08:13.434Z,72.58
2022-07-29T22:10:40.302Z,72.80
2022-07-29T22:13:07.103Z,72.91
2022-07-29T22:15:33.732Z,73.16
2022-07-29T22:18:00.589Z,73.11
2022-07-29T22:20:27.509Z,72.97
2022-07-29T22:22:54.859Z,73.63
2022-07-29T22:25:22.166Z,73.57
2022-07-29T22:27:49.584Z,73.72
2022-07-29T22:30:17.385Z,73.86
2022-07-29T22:32:44.178Z,73.83
2022-07-29T22:35:11.258Z,73.89
2022-07-29T22:37:41.016Z,73.80
2022-07-29T22:40:08.386Z,74.08
2022-07-29T22:42:35.484Z,74.78
2022-07-29T22:45:02.767Z,74.95
2022-07-29T22:47:39.005Z,75.08
2022-07-29T22:50:14.656Z,75.03
2022-07-29T22:52:41.527Z,74.74
2022-07-29T22:55:08.655Z,74.87
2022-07-29T22:57:35.335Z,75.25
2022-07-29T23:00:02.475Z,75.18
2022-07-29T23:02:29.449Z,75.02
2022-07-29T23:04:56.619Z,75.29
2022-07-29T23:07:23.453Z,75.53
2022-07-29T23:09:50.227Z,75.21
2022-07-29T23:12:17.561Z,75.49
2022-07-29T23:14:44.229Z,75.58
2022-07-29T23:17:10.948Z,75.66
2022-07-29T23:19:37.576Z,75.81
2022-07-29T23:22:04.784Z,75.91
2022-07-29T23:24:31.469Z,76.01
2022-07-29T23:26:58.386Z,75.74
2022-07-29T23:29:26.044Z,75.65
2022-07-29T23:31:52.599Z,75.75
2022-07-29T23:34:22.092Z,75.65
2022-07-29T23:36:48.791Z,75.93
2022-07-29T23:39:15.496Z,75.49
2022-07-29T23:41:42.675Z,75.93
2022-07-29T23:44:09.482Z,76.15
2022-07-29T23:46:36.112Z,76.29
2022-07-29T23:49:02.873Z,76.06
2022-07-29T23:51:29.679Z,76.42
2022-07-29T23:53:56.820Z,76.46
2022-07-29T23:56:23.596Z,76.74
2022-07-29T23:58:50.300Z,76.69
